createdAt,value
2017-11-25T00:00:23.740Z,4.07
2017-11-25T00:02:54.584Z,4.47
2017-11-25T00:05:25.444Z,3.40
2017-11-25T00:07:56.311Z,4.90
2017-11-25T00:10:27.176Z,4.13
2017-11-25T00:12:58.063Z,1.90
2017-11-25T00:15:28.921Z,2.70
2017-11-25T00:17:59.776Z,2.50
2017-11-25T00:20:30.639Z,2.20
2017-11-25T00:23:01.475Z,2.70
2017-11-25T00:25:32.329Z,2.57
2017-11-25T00:28:03.204Z,3.23
2017-11-25T00:30:34.060Z,3.30
2017-11-25T00:33:04.945Z,5.33
2017-11-25T00:35:35.811Z,2.90
2017-11-25T00:38:06.693Z,3.23
2017-11-25T00:40:37.537Z,3.03
2017-11-25T00:43:08.401Z,4.20
2017-11-25T00:45:39.244Z,4.33
2017-11-25T00:48:10.096Z,2.20
2017-11-25T00:50:40.960Z,3.30
2017-11-25T00:53:11.817Z,3.43
2017-11-25T00:55:42.689Z,2.70
2017-11-25T00:58:13.534Z,1.90
2017-11-25T01:00:44.403Z,4.10
2017-11-25T01:03:15.246Z,3.10
2017-11-25T01:05:46.118Z,2.67
2017-11-25T01:08:16.965Z,2.90
2017-11-25T01:10:47.835Z,1.73
2017-11-25T01:13:18.664Z,3.47
2017-11-25T01:15:49.553Z,3.20
2017-11-25T01:18:20.523Z,3.30
2017-11-25T01:20:51.414Z,4.70
2017-11-25T01:23:22.329Z,2.03
2017-11-25T01:25:53.227Z,2.30
2017-11-25T01:28:24.135Z,2.93
2017-11-25T01:30:55.028Z,5.37
2017-11-25T01:33:25.955Z,2.50
2017-11-25T01:35:56.844Z,2.47
2017-11-25T01:38:27.754Z,2.20
2017-11-25T01:40:58.638Z,2.20
2017-11-25T01:43:29.533Z,2.00
2017-11-25T01:46:00.447Z,1.20
2017-11-25T01:48:31.487Z,2.03
2017-11-25T01:51:02.393Z,2.00
2017-11-25T01:53:33.300Z,2.53
2017-11-25T01:56:04.202Z,2.10
2017-11-25T01:58:35.084Z,2.13
2017-11-25T02:01:05.969Z,2.10
2017-11-25T02:03:37.046Z,3.00
2017-11-25T02:06:07.980Z,2.33
2017-11-25T02:08:38.877Z,2.00
2017-11-25T02:11:09.782Z,2.00
2017-11-25T02:13:40.674Z,2.43
2017-11-25T02:16:11.552Z,2.10
2017-11-25T02:18:42.445Z,1.60
2017-11-25T02:21:13.342Z,2.37
2017-11-25T02:23:44.334Z,2.73
2017-11-25T02:26:15.197Z,3.00
2017-11-25T02:28:46.097Z,4.00
2017-11-25T02:31:16.983Z,2.40
2017-11-25T02:33:47.900Z,1.63
2017-11-25T02:36:18.932Z,2.40
2017-11-25T02:38:49.818Z,2.05
2017-11-25T02:41:20.747Z,1.97
2017-11-25T02:43:51.642Z,2.50
2017-11-25T02:46:22.533Z,1.47
2017-11-25T02:48:53.423Z,2.63
2017-11-25T02:51:24.330Z,1.63
2017-11-25T02:53:55.208Z,1.67
2017-11-25T02:56:26.534Z,2.67
2017-11-25T02:58:57.424Z,1.30
2017-11-25T03:01:28.350Z,1.30
2017-11-25T03:03:59.254Z,1.47
2017-11-25T03:06:30.158Z,2.80
2017-11-25T03:09:01.072Z,2.87
2017-11-25T03:11:32.186Z,2.00
2017-11-25T03:14:03.072Z,1.58
2017-11-25T03:16:33.976Z,1.43
2017-11-25T03:19:04.886Z,1.27
2017-11-25T03:21:35.792Z,1.70
2017-11-25T03:24:06.782Z,1.50
2017-11-25T03:26:37.699Z,2.13
2017-11-25T03:29:08.583Z,4.97
2017-11-25T03:31:39.461Z,1.70
2017-11-25T03:34:10.388Z,2.00
2017-11-25T03:36:41.281Z,1.97
2017-11-25T03:39:12.188Z,1.63
2017-11-25T03:41:43.077Z,2.83
2017-11-25T03:44:13.985Z,2.07
2017-11-25T03:46:44.899Z,1.53
2017-11-25T03:49:15.792Z,1.80
2017-11-25T03:51:46.666Z,1.97
2017-11-25T03:54:17.651Z,2.10
2017-11-25T03:56:48.521Z,1.37
2017-11-25T03:59:19.448Z,2.50
2017-11-25T04:01:50.336Z,1.23
2017-11-25T04:04:21.303Z,1.27
2017-11-25T04:06:52.197Z,4.90
2017-11-25T04:09:23.082Z,1.50
2017-11-25T04:11:53.987Z,1.43
2017-11-25T04:14:25.448Z,2.80
2017-11-25T04:16:56.359Z,1.87
2017-11-25T04:19:27.347Z,1.63
2017-11-25T04:21:58.290Z,2.53
2017-11-25T04:24:29.169Z,2.20
2017-11-25T04:27:00.084Z,1.07
2017-11-25T04:29:30.967Z,1.53
2017-11-25T04:32:01.869Z,2.40
2017-11-25T04:34:32.753Z,1.97
2017-11-25T04:37:03.643Z,1.40
2017-11-25T04:39:34.537Z,2.00
2017-11-25T04:42:05.412Z,2.00
2017-11-25T04:44:36.317Z,1.20
2017-11-25T04:47:07.188Z,2.43
2017-11-25T04:49:38.108Z,2.50
2017-11-25T04:52:08.985Z,1.10
2017-11-25T04:54:39.877Z,1.30
2017-11-25T04:57:10.763Z,2.23
2017-11-25T04:59:41.761Z,1.37
2017-11-25T05:02:12.640Z,1.40
2017-11-25T05:04:43.543Z,2.80
2017-11-25T05:07:14.420Z,2.00
2017-11-25T05:09:45.312Z,1.03
2017-11-25T05:12:16.231Z,0.93
2017-11-25T05:14:47.211Z,1.50
2017-11-25T05:17:18.091Z,2.90
2017-11-25T05:19:48.986Z,1.30
2017-11-25T05:22:19.895Z,2.13
2017-11-25T05:24:50.782Z,1.90
2017-11-25T05:27:21.712Z,1.33
2017-11-25T05:29:52.584Z,1.27
2017-11-25T05:32:23.500Z,2.10
2017-11-25T05:34:54.389Z,0.83
2017-11-25T05:37:25.327Z,1.20
2017-11-25T05:39:56.300Z,1.27
2017-11-25T05:42:27.201Z,2.00
2017-11-25T05:44:58.121Z,1.20
2017-11-25T05:47:29.009Z,2.17
2017-11-25T05:49:59.912Z,1.40
2017-11-25T05:52:30.807Z,1.80
2017-11-25T05:55:01.711Z,1.10
2017-11-25T05:57:32.585Z,3.03
2017-11-25T06:00:03.497Z,1.17
2017-11-25T06:02:34.411Z,1.57
2017-11-25T06:05:05.306Z,0.80
2017-11-25T06:07:36.330Z,1.60
2017-11-25T06:10:07.242Z,1.20
2017-11-25T06:12:38.148Z,1.90
2017-11-25T06:15:09.063Z,1.23
2017-11-25T06:17:39.963Z,0.90
2017-11-25T06:20:10.864Z,1.63
2017-11-25T06:22:41.772Z,1.27
2017-11-25T06:25:12.649Z,1.23
2017-11-25T06:27:43.516Z,1.17
2017-11-25T06:30:14.444Z,1.20
2017-11-25T06:32:45.330Z,0.70
2017-11-25T06:35:16.238Z,8.63
2017-11-25T06:37:47.134Z,13.03
2017-11-25T06:40:18.031Z,32.43
2017-11-25T06:42:48.926Z,43.20
2017-11-25T06:45:19.826Z,40.30
2017-11-25T06:47:50.731Z,34.90
2017-11-25T06:50:21.640Z,44.33
2017-11-25T06:52:52.550Z,36.97
2017-11-25T06:55:23.493Z,37.60
2017-11-25T06:57:54.354Z,37.50
2017-11-25T07:00:25.267Z,27.47
2017-11-25T07:02:56.172Z,31.07
2017-11-25T07:05:27.115Z,30.53
2017-11-25T07:07:57.995Z,33.37
2017-11-25T07:10:28.882Z,20.63
2017-11-25T07:12:59.795Z,22.03
2017-11-25T07:15:30.694Z,15.07
2017-11-25T07:18:01.591Z,9.63
2017-11-25T07:20:32.479Z,4.70
2017-11-25T07:23:03.403Z,3.70
2017-11-25T07:25:34.302Z,1.60
2017-11-25T07:28:05.213Z,2.03
2017-11-25T07:30:36.069Z,1.33
2017-11-25T07:33:07.004Z,3.30
2017-11-25T07:35:38.631Z,1.90
2017-11-25T07:38:09.514Z,0.95
2017-11-25T07:40:40.397Z,0.63
2017-11-25T07:43:12.080Z,1.33
2017-11-25T07:45:42.991Z,1.67
2017-11-25T07:48:13.876Z,3.90
2017-11-25T07:50:44.789Z,3.07
2017-11-25T07:53:15.781Z,2.50
2017-11-25T07:55:46.680Z,2.40
2017-11-25T07:58:17.559Z,1.70
2017-11-25T08:00:48.492Z,1.90
2017-11-25T08:03:19.393Z,3.80
2017-11-25T08:05:50.290Z,1.43
2017-11-25T08:08:21.184Z,1.77
2017-11-25T08:10:52.101Z,1.00
2017-11-25T08:13:22.973Z,1.60
2017-11-25T08:15:53.840Z,1.70
2017-11-25T08:18:24.771Z,1.70
2017-11-25T08:20:55.629Z,1.27
2017-11-25T08:23:26.477Z,0.93
2017-11-25T08:25:57.357Z,2.00
2017-11-25T08:28:28.220Z,1.33
2017-11-25T08:30:59.095Z,3.30
2017-11-25T08:33:29.962Z,1.67
2017-11-25T08:36:00.831Z,1.17
2017-11-25T08:38:31.680Z,2.40
2017-11-25T08:41:02.587Z,0.60
2017-11-25T08:43:33.448Z,0.80
2017-11-25T08:46:04.294Z,1.07
2017-11-25T08:48:35.150Z,0.70
2017-11-25T08:51:06.030Z,1.70
2017-11-25T08:53:36.923Z,2.00
2017-11-25T08:56:07.829Z,0.90
2017-11-25T08:58:38.687Z,0.93
2017-11-25T09:01:09.556Z,3.00
2017-11-25T09:03:40.429Z,1.77
2017-11-25T09:06:11.309Z,1.70
2017-11-25T09:08:42.158Z,0.80
2017-11-25T09:11:13.161Z,0.90
2017-11-25T09:13:44.005Z,0.88
2017-11-25T09:16:14.899Z,1.57
2017-11-25T09:18:45.753Z,0.90
2017-11-25T09:21:16.622Z,0.90
2017-11-25T09:23:47.497Z,0.77
2017-11-25T09:26:18.344Z,1.20
2017-11-25T09:28:49.212Z,2.93
2017-11-25T09:31:20.087Z,0.70
2017-11-25T09:33:50.955Z,1.50
2017-11-25T09:36:21.812Z,1.43
2017-11-25T09:38:52.684Z,1.77
2017-11-25T09:41:23.602Z,1.30
2017-11-25T09:43:54.450Z,0.87
2017-11-25T09:46:25.343Z,0.97
2017-11-25T09:48:56.193Z,1.27
2017-11-25T09:51:27.053Z,0.97
2017-11-25T09:53:57.904Z,1.77
2017-11-25T09:56:28.750Z,0.90
2017-11-25T09:58:59.584Z,1.13
2017-11-25T10:01:30.457Z,1.57
2017-11-25T10:04:01.300Z,1.10
2017-11-25T10:06:32.153Z,0.60
2017-11-25T10:09:02.987Z,0.50
2017-11-25T10:11:33.820Z,0.67
2017-11-25T10:14:04.652Z,0.80
2017-11-25T10:16:35.519Z,1.30
2017-11-25T10:19:06.381Z,0.90
2017-11-25T10:21:37.230Z,2.03
2017-11-25T10:24:08.089Z,0.93
2017-11-25T10:26:38.977Z,1.57
2017-11-25T10:29:09.844Z,2.90
2017-11-25T10:31:40.731Z,1.17
2017-11-25T10:34:11.586Z,1.57
2017-11-25T10:36:42.468Z,0.90
2017-11-25T10:39:13.365Z,2.23
2017-11-25T10:41:44.192Z,3.10
2017-11-25T10:44:15.042Z,1.13
2017-11-25T10:46:45.898Z,0.90
2017-11-25T10:49:16.764Z,4.50
2017-11-25T10:51:47.628Z,2.60
2017-11-25T10:54:18.491Z,1.70
2017-11-25T10:56:49.345Z,1.10
2017-11-25T10:59:20.560Z,1.23
2017-11-25T11:01:51.408Z,2.10
2017-11-25T11:04:22.274Z,1.17
2017-11-25T11:06:53.173Z,1.03
2017-11-25T11:09:24.024Z,1.00
2017-11-25T11:11:54.908Z,2.00
2017-11-25T11:14:25.771Z,1.23
2017-11-25T11:16:56.648Z,3.73
2017-11-25T11:19:27.492Z,1.30
2017-11-25T11:21:58.347Z,0.67
2017-11-25T11:24:29.205Z,0.70
2017-11-25T11:27:00.095Z,2.50
2017-11-25T11:29:30.941Z,3.20
2017-11-25T11:32:01.817Z,1.07
2017-11-25T11:34:32.697Z,0.77
2017-11-25T11:37:03.544Z,2.30
2017-11-25T11:39:34.431Z,2.57
2017-11-25T11:42:05.298Z,2.60
2017-11-25T11:44:36.133Z,5.30
2017-11-25T11:47:06.997Z,6.00
2017-11-25T11:49:37.846Z,5.63
2017-11-25T11:52:08.741Z,7.90
2017-11-25T11:54:39.579Z,6.73
2017-11-25T11:57:10.436Z,4.63
2017-11-25T11:59:41.264Z,5.30
2017-11-25T12:02:12.111Z,5.43
2017-11-25T12:04:42.992Z,4.00
2017-11-25T12:07:13.871Z,3.50
2017-11-25T12:09:44.733Z,5.07
2017-11-25T12:12:15.564Z,4.40
2017-11-25T12:14:46.412Z,5.00
2017-11-25T12:17:17.268Z,4.63
2017-11-25T12:19:48.140Z,5.00
2017-11-25T12:22:19.136Z,3.37
2017-11-25T12:24:50.022Z,4.07
2017-11-25T12:27:20.862Z,5.20
2017-11-25T12:29:51.709Z,4.10
2017-11-25T12:32:22.557Z,3.83
2017-11-25T12:34:53.437Z,3.57
2017-11-25T12:37:24.310Z,9.23
2017-11-25T12:39:55.186Z,5.80
2017-11-25T12:42:26.062Z,4.60
2017-11-25T12:44:56.927Z,3.80
2017-11-25T12:47:27.772Z,2.00
2017-11-25T12:49:58.621Z,3.70
2017-11-25T12:52:29.501Z,4.33
2017-11-25T12:55:00.377Z,3.27
2017-11-25T12:57:31.358Z,2.50
2017-11-25T13:00:02.205Z,2.37
2017-11-25T13:02:33.124Z,3.00
2017-11-25T13:05:04.089Z,2.10
2017-11-25T13:07:34.967Z,5.53
2017-11-25T13:10:05.815Z,4.80
2017-11-25T13:12:36.691Z,2.90
2017-11-25T13:15:07.562Z,4.27
2017-11-25T13:17:38.582Z,4.50
2017-11-25T13:20:09.441Z,2.58
2017-11-25T13:22:40.438Z,2.97
2017-11-25T13:25:11.306Z,4.30
2017-11-25T13:27:42.141Z,4.63
2017-11-25T13:30:12.983Z,4.20
2017-11-25T13:32:44.102Z,3.07
2017-11-25T13:35:14.950Z,3.08
2017-11-25T13:37:45.793Z,6.60
2017-11-25T13:40:16.646Z,3.60
2017-11-25T13:42:47.535Z,3.73
2017-11-25T13:45:18.461Z,2.37
2017-11-25T13:47:49.321Z,2.80
2017-11-25T13:50:20.216Z,5.23
2017-11-25T13:52:51.060Z,4.57
2017-11-25T13:55:21.953Z,6.00
2017-11-25T13:57:52.876Z,2.40
2017-11-25T14:00:23.741Z,2.27
2017-11-25T14:02:54.609Z,3.57
2017-11-25T14:05:25.470Z,3.30
2017-11-25T14:07:56.344Z,3.47
2017-11-25T14:10:27.190Z,2.60
2017-11-25T14:12:58.078Z,3.70
2017-11-25T14:15:28.952Z,3.30
2017-11-25T14:17:59.821Z,2.17
2017-11-25T14:20:30.695Z,2.73
2017-11-25T14:23:01.580Z,3.30
2017-11-25T14:25:32.453Z,2.30
2017-11-25T14:28:03.317Z,3.53
2017-11-25T14:30:34.181Z,3.70
2017-11-25T14:33:05.039Z,5.20
2017-11-25T14:35:35.917Z,2.83
2017-11-25T14:38:06.779Z,2.53
2017-11-25T14:40:37.664Z,3.00
2017-11-25T14:43:08.541Z,2.57
2017-11-25T14:45:39.407Z,3.83
2017-11-25T14:48:10.309Z,2.47
2017-11-25T14:50:41.205Z,5.33
2017-11-25T14:53:12.072Z,2.70
2017-11-25T14:55:42.933Z,8.57
2017-11-25T14:58:13.822Z,2.70
2017-11-25T15:00:44.693Z,3.80
2017-11-25T15:03:15.589Z,2.00
2017-11-25T15:05:46.477Z,2.27
2017-11-25T15:08:17.339Z,2.10
2017-11-25T15:10:48.217Z,6.77
2017-11-25T15:13:19.080Z,2.10
2017-11-25T15:15:49.975Z,4.73
2017-11-25T15:18:20.869Z,3.10
2017-11-25T15:20:51.860Z,3.73
2017-11-25T15:23:22.713Z,4.07
2017-11-25T15:25:53.584Z,3.50
2017-11-25T15:28:24.452Z,4.07
2017-11-25T15:30:55.316Z,4.37
2017-11-25T15:33:26.166Z,5.33
2017-11-25T15:35:57.022Z,4.60
2017-11-25T15:38:27.893Z,9.70
2017-11-25T15:40:58.770Z,3.13
2017-11-25T15:43:29.637Z,4.77
2017-11-25T15:46:00.486Z,5.80
2017-11-25T15:48:31.357Z,4.07
2017-11-25T15:51:02.205Z,4.50
2017-11-25T15:53:33.072Z,8.43
2017-11-25T15:56:03.923Z,3.57
2017-11-25T15:58:34.794Z,6.93
2017-11-25T16:01:05.685Z,8.07
2017-11-25T16:03:36.555Z,8.83
2017-11-25T16:06:07.432Z,6.73
2017-11-25T16:08:38.308Z,3.17
2017-11-25T16:11:09.267Z,1.93
2017-11-25T16:13:40.192Z,3.30
2017-11-25T16:16:11.052Z,4.43
2017-11-25T16:18:41.932Z,3.60
2017-11-25T16:21:12.786Z,6.27
2017-11-25T16:23:43.650Z,3.07
2017-11-25T16:26:14.524Z,4.33
2017-11-25T16:28:45.378Z,4.20
2017-11-25T16:31:16.322Z,3.63
2017-11-25T16:33:47.248Z,2.70
2017-11-25T16:36:18.099Z,5.10
2017-11-25T16:38:48.983Z,3.00
2017-11-25T16:41:19.843Z,3.17
2017-11-25T16:43:50.726Z,4.00
2017-11-25T16:46:21.587Z,3.53
2017-11-25T16:48:52.463Z,2.23
2017-11-25T16:51:23.312Z,3.20
2017-11-25T16:53:54.206Z,3.10
2017-11-25T16:56:25.038Z,2.50
2017-11-25T16:58:55.888Z,2.77
2017-11-25T17:01:26.763Z,2.93
2017-11-25T17:03:57.630Z,3.03
2017-11-25T17:06:28.502Z,1.77
2017-11-25T17:08:59.379Z,2.10
2017-11-25T17:11:30.269Z,3.30
2017-11-25T17:14:01.131Z,1.80
2017-11-25T17:16:31.994Z,3.47
2017-11-25T17:19:02.853Z,2.70
2017-11-25T17:21:33.735Z,2.60
2017-11-25T17:24:04.610Z,3.27
2017-11-25T17:26:35.524Z,1.53
2017-11-25T17:29:06.357Z,3.17
2017-11-25T17:31:37.222Z,3.07
2017-11-25T17:34:08.065Z,2.20
2017-11-25T17:36:38.973Z,2.87
2017-11-25T17:39:09.830Z,2.63
2017-11-25T17:41:40.698Z,1.67
2017-11-25T17:44:11.559Z,2.30
2017-11-25T17:46:42.456Z,2.93
2017-11-25T17:49:13.387Z,2.40
2017-11-25T17:51:44.262Z,1.23
2017-11-25T17:54:15.149Z,1.30
2017-11-25T17:56:45.995Z,2.47
2017-11-25T17:59:16.893Z,2.30
2017-11-25T18:01:47.775Z,1.43
2017-11-25T18:04:18.650Z,3.07
2017-11-25T18:06:49.540Z,2.00
2017-11-25T18:09:20.394Z,4.70
2017-11-25T18:11:51.246Z,2.17
2017-11-25T18:14:22.104Z,2.30
2017-11-25T18:16:52.964Z,2.00
2017-11-25T18:19:23.853Z,1.80
2017-11-25T18:21:54.725Z,1.60
2017-11-25T18:24:25.579Z,2.23
2017-11-25T18:26:56.440Z,1.67
2017-11-25T18:29:27.370Z,1.37
2017-11-25T18:31:58.253Z,1.07
2017-11-25T18:34:29.101Z,1.67
2017-11-25T18:36:59.953Z,0.83
2017-11-25T18:39:30.831Z,3.47
2017-11-25T18:42:01.689Z,1.40
2017-11-25T18:44:32.555Z,2.73
2017-11-25T18:47:03.410Z,1.93
2017-11-25T18:49:34.299Z,1.77
2017-11-25T18:52:05.148Z,1.80
2017-11-25T18:54:36.018Z,1.90
2017-11-25T18:57:06.900Z,2.20
2017-11-25T18:59:37.768Z,1.67
2017-11-25T19:02:08.651Z,1.63
2017-11-25T19:04:39.536Z,1.00
2017-11-25T19:07:10.407Z,3.67
2017-11-25T19:09:41.284Z,1.33
2017-11-25T19:12:12.153Z,1.00
2017-11-25T19:14:43.187Z,1.90
2017-11-25T19:17:14.022Z,1.05
2017-11-25T19:19:44.962Z,3.00
2017-11-25T19:22:15.795Z,0.50
2017-11-25T19:24:46.689Z,2.23
2017-11-25T19:27:17.563Z,2.20
2017-11-25T19:29:48.514Z,2.83
2017-11-25T19:32:19.393Z,2.00
2017-11-25T19:34:50.268Z,1.13
2017-11-25T19:37:21.125Z,1.47
2017-11-25T19:39:51.985Z,2.67
2017-11-25T19:42:22.851Z,1.23
2017-11-25T19:44:53.723Z,2.20
2017-11-25T19:47:24.644Z,1.63
2017-11-25T19:49:55.474Z,6.97
2017-11-25T19:52:29.028Z,5.30
2017-11-25T19:55:00.676Z,23.55
2017-11-25T19:57:32.021Z,28.50
2017-11-25T20:00:03.067Z,30.50
2017-11-25T20:02:33.962Z,39.08
2017-11-25T20:05:04.870Z,44.47
2017-11-25T20:07:35.800Z,33.60
2017-11-25T20:10:06.680Z,31.40
2017-11-25T20:12:37.656Z,17.77
2017-11-25T20:15:08.539Z,28.87
2017-11-25T20:17:39.440Z,27.70
2017-11-25T20:20:10.321Z,25.67
2017-11-25T20:22:41.185Z,23.90
2017-11-25T20:25:12.474Z,22.20
2017-11-25T20:27:43.502Z,26.73
2017-11-25T20:30:14.418Z,27.98
2017-11-25T20:32:45.300Z,18.83
2017-11-25T20:35:16.418Z,19.97
2017-11-25T20:37:47.284Z,11.80
2017-11-25T20:40:18.313Z,29.77
2017-11-25T20:42:49.454Z,13.88
2017-11-25T20:45:20.391Z,11.98
2017-11-25T20:47:51.633Z,14.07
2017-11-25T20:50:22.709Z,8.98
2017-11-25T20:52:53.717Z,9.98
2017-11-25T20:55:24.825Z,16.02
2017-11-25T20:57:56.156Z,15.17
2017-11-25T21:00:27.036Z,9.85
2017-11-25T21:02:57.957Z,20.07
2017-11-25T21:05:28.803Z,10.47
2017-11-25T21:07:59.692Z,6.73
2017-11-25T21:10:30.557Z,10.20
2017-11-25T21:13:01.442Z,8.23
2017-11-25T21:15:32.310Z,7.93
2017-11-25T21:18:03.177Z,11.00
2017-11-25T21:20:34.063Z,5.50
2017-11-25T21:23:04.927Z,10.60
2017-11-25T21:25:35.939Z,6.03
2017-11-25T21:28:06.789Z,3.58
2017-11-25T21:30:37.666Z,2.83
2017-11-25T21:33:08.538Z,2.83
2017-11-25T21:35:39.456Z,5.73
2017-11-25T21:38:10.326Z,3.50
2017-11-25T21:40:41.209Z,6.90
2017-11-25T21:43:12.087Z,2.23
2017-11-25T21:45:42.951Z,3.10
2017-11-25T21:48:13.874Z,3.10
2017-11-25T21:50:44.761Z,4.60
2017-11-25T21:53:15.631Z,1.60
2017-11-25T21:55:46.501Z,2.57
2017-11-25T21:58:17.386Z,2.20
2017-11-25T22:00:48.262Z,4.00
2017-11-25T22:03:19.146Z,2.40
2017-11-25T22:05:49.988Z,2.57
2017-11-25T22:08:20.860Z,1.93
2017-11-25T22:10:51.726Z,2.17
2017-11-25T22:13:22.597Z,2.00
2017-11-25T22:15:53.453Z,3.17
2017-11-25T22:18:24.304Z,5.10
2017-11-25T22:20:55.184Z,1.40
2017-11-25T22:23:26.050Z,2.57
2017-11-25T22:25:56.924Z,1.80
2017-11-25T22:28:27.785Z,3.83
2017-11-25T22:30:58.642Z,2.60
2017-11-25T22:33:29.527Z,2.33
2017-11-25T22:36:00.391Z,2.67
2017-11-25T22:38:31.257Z,1.83
2017-11-25T22:41:02.143Z,1.60
2017-11-25T22:43:33.014Z,1.53
2017-11-25T22:46:04.756Z,1.48
2017-11-25T22:48:35.617Z,1.43
2017-11-25T22:51:06.493Z,2.33
2017-11-25T22:53:37.360Z,1.40
2017-11-25T22:56:08.212Z,2.00
2017-11-25T22:58:39.098Z,2.50
2017-11-25T23:01:09.945Z,3.07
2017-11-25T23:03:41.872Z,1.30
2017-11-25T23:06:12.721Z,2.87
2017-11-25T23:08:43.616Z,2.13
2017-11-25T23:11:14.494Z,1.70
2017-11-25T23:13:45.356Z,2.57
2017-11-25T23:16:16.234Z,1.90
2017-11-25T23:18:47.104Z,1.90
2017-11-25T23:21:18.007Z,4.80
2017-11-25T23:23:48.893Z,2.30
2017-11-25T23:26:19.760Z,2.00
2017-11-25T23:28:50.702Z,17.47
2017-11-25T23:31:21.583Z,1.33
2017-11-25T23:33:52.521Z,2.80
2017-11-25T23:36:23.571Z,1.33
2017-11-25T23:38:54.587Z,3.15
2017-11-25T23:41:25.529Z,2.50
2017-11-25T23:43:56.435Z,1.70
2017-11-25T23:46:27.285Z,2.07
2017-11-25T23:48:58.171Z,2.27
2017-11-25T23:51:29.018Z,2.60
2017-11-25T23:54:00.047Z,1.63
2017-11-25T23:56:30.953Z,1.25
2017-11-25T23:59:01.835Z,4.63
